METAR Data
IDs: Format: Raw Decoded Include TAF

Data at: 0816 UTC 07 Apr 2020

METAR for:LEBZ (Badajoz Arpt, --, SP)
Text:LEBZ 070800Z AUTO 08003KT 050V110 9999 FEW024 OVC030 15/15 Q1022
Temperature: 15.0°C ( 59°F)
Dewpoint: 15.0°C ( 59°F) [RH = 100%]
Pressure (altimeter):30.18 inches Hg (1022.0 mb)
Winds:from the E (80 degrees) at 3 MPH (3 knots; 1.5 m/s)
Visibility:6 or more sm (10+ km)
Ceiling:3000 feet AGL
Clouds: few clouds at 2400 feet AGL, overcast cloud deck at 3000 feet AGL

TAF for:LEBZ (Badajoz Arpt, --, SP) issued at 0500 UTC 07 Apr 2020
Text:TAF LEBZ 070500Z 0706/0806 22006KT 9999 SCT025 TX23/0715Z TN12/0806Z
Forecast period:0600 UTC 07 April 2020 to 0600 UTC 08 April 2020
Forecast type:FROM: standard forecast or significant change
Winds:from the SW (220 degrees) at 7 MPH (6 knots; 3.1 m/s)
Visibility:6 or more sm (10+ km)
Ceiling:at least 12,000 feet AGL
Clouds: scattered clouds at 2500 feet AGL
Text:PROB40
Forecast period:0600 to 1000 UTC 07 April 2020
Forecast type:TEMPORARY: The following changes expected for less than half the time period
Visibility: 2.49 sm ( 4.01 km)
Ceiling:1200 feet AGL
Clouds: broken clouds at 1200 feet AGL
Weather:-RA -DZ (light rain, light drizzle)